createdAt,value
2018-05-10T00:01:04.933Z,17.67
2018-05-10T00:03:33.353Z,18.10
2018-05-10T00:06:00.887Z,17.90
2018-05-10T00:08:29.165Z,19.00
2018-05-10T00:10:56.695Z,17.40
2018-05-10T00:13:25.795Z,17.03
2018-05-10T00:15:53.323Z,18.73
2018-05-10T00:18:21.597Z,18.33
2018-05-10T00:20:49.130Z,19.33
2018-05-10T00:23:16.644Z,19.40
2018-05-10T00:25:44.945Z,18.07
2018-05-10T00:28:13.217Z,17.53
2018-05-10T00:30:40.762Z,17.27
2018-05-10T00:33:08.269Z,17.70
2018-05-10T00:35:36.768Z,18.70
2018-05-10T00:38:05.046Z,18.30
2018-05-10T00:40:33.345Z,16.73
2018-05-10T00:43:01.643Z,18.37
2018-05-10T00:45:29.153Z,16.97
2018-05-10T00:47:56.682Z,16.60
2018-05-10T00:50:24.189Z,19.17
2018-05-10T00:52:51.713Z,18.40
2018-05-10T00:55:20.035Z,16.83
2018-05-10T00:57:48.299Z,17.30
2018-05-10T01:00:15.847Z,17.43
2018-05-10T01:02:44.116Z,16.80
2018-05-10T01:05:11.826Z,16.80
2018-05-10T01:07:40.117Z,17.60
2018-05-10T01:10:07.634Z,15.60
2018-05-10T01:12:35.157Z,16.47
2018-05-10T01:15:02.665Z,16.60
2018-05-10T01:17:30.193Z,17.67
2018-05-10T01:19:58.469Z,16.57
2018-05-10T01:22:26.741Z,17.90
2018-05-10T01:24:54.278Z,18.20
2018-05-10T01:27:21.785Z,16.90
2018-05-10T01:29:49.312Z,17.63
2018-05-10T01:32:16.813Z,18.00
2018-05-10T01:34:56.365Z,17.93
2018-05-10T01:37:23.875Z,18.47
2018-05-10T01:39:52.145Z,18.20
2018-05-10T01:42:19.679Z,18.53
2018-05-10T01:44:47.185Z,17.63
2018-05-10T01:47:14.722Z,17.50
2018-05-10T01:49:42.230Z,16.97
2018-05-10T01:52:10.522Z,17.30
2018-05-10T01:54:38.798Z,16.77
2018-05-10T01:57:06.929Z,15.40
2018-05-10T01:59:34.453Z,16.43
2018-05-10T02:02:01.966Z,15.00
2018-05-10T02:04:29.500Z,14.57
2018-05-10T02:06:57.769Z,15.83
2018-05-10T02:09:25.858Z,14.67
2018-05-10T02:11:53.366Z,14.87
2018-05-10T02:14:21.533Z,14.23
2018-05-10T02:16:49.880Z,12.57
2018-05-10T02:19:17.382Z,13.90
2018-05-10T02:21:44.906Z,12.10
2018-05-10T02:24:12.408Z,12.50
2018-05-10T02:26:40.049Z,12.33
2018-05-10T02:29:07.557Z,11.43
2018-05-10T02:31:35.088Z,12.33
2018-05-10T02:34:02.625Z,11.33
2018-05-10T02:36:30.920Z,10.63
2018-05-10T02:38:59.210Z,11.37
2018-05-10T02:41:26.717Z,10.37
2018-05-10T02:43:54.253Z,10.10
2018-05-10T02:46:21.757Z,9.13
2018-05-10T02:48:49.265Z,10.40
2018-05-10T02:51:17.553Z,9.40
2018-05-10T02:53:45.831Z,8.87
2018-05-10T02:56:13.353Z,8.27
2018-05-10T02:58:40.858Z,7.07
2018-05-10T03:01:08.408Z,7.67
2018-05-10T03:03:35.913Z,7.70
2018-05-10T03:06:03.422Z,7.00
2018-05-10T03:08:30.946Z,7.33
2018-05-10T03:10:58.449Z,7.50
2018-05-10T03:13:26.733Z,6.77
2018-05-10T03:15:55.007Z,6.37
2018-05-10T03:18:22.539Z,6.00
2018-05-10T03:20:50.045Z,6.77
2018-05-10T03:23:18.349Z,6.10
2018-05-10T03:25:46.642Z,5.70
2018-05-10T03:28:15.547Z,5.60
2018-05-10T03:30:43.838Z,5.83
2018-05-10T03:33:11.404Z,5.90
2018-05-10T03:35:38.908Z,6.17
2018-05-10T03:38:06.417Z,6.33
2018-05-10T03:40:33.935Z,5.77
2018-05-10T03:43:01.463Z,6.00
2018-05-10T03:45:28.985Z,6.70
2018-05-10T03:47:56.511Z,6.83
2018-05-10T03:50:24.792Z,8.70
2018-05-10T03:52:52.321Z,9.57
2018-05-10T03:55:19.845Z,11.10
2018-05-10T03:57:48.117Z,10.20
2018-05-10T04:00:15.645Z,10.87
2018-05-10T04:05:58.761Z,12.07
2018-05-10T04:08:38.225Z,13.70
2018-05-10T04:11:18.426Z,13.47
2018-05-10T04:13:45.977Z,13.33
2018-05-10T04:16:14.249Z,13.80
2018-05-10T04:18:43.870Z,13.90
2018-05-10T04:21:12.162Z,13.87
2018-05-10T04:23:40.437Z,15.03
2018-05-10T04:26:07.966Z,13.60
2018-05-10T04:28:35.477Z,15.10
2018-05-10T04:31:03.026Z,13.80
2018-05-10T04:33:30.533Z,15.40
2018-05-10T04:35:58.819Z,14.57
2018-05-10T04:38:27.109Z,15.93
2018-05-10T04:40:55.381Z,14.80
2018-05-10T04:43:22.909Z,15.27
2018-05-10T04:45:50.427Z,14.17
2018-05-10T04:48:18.729Z,16.30
2018-05-10T04:50:47.001Z,15.47
2018-05-10T04:53:14.505Z,14.83
2018-05-10T04:55:42.041Z,15.00
2018-05-10T04:58:09.549Z,14.53
2018-05-10T05:00:37.089Z,13.67
2018-05-10T05:03:04.597Z,14.80
2018-05-10T05:05:32.138Z,14.30
2018-05-10T05:08:00.582Z,14.40
2018-05-10T05:10:28.104Z,13.90
2018-05-10T05:12:56.425Z,13.30
2018-05-10T05:15:25.532Z,13.63
2018-05-10T05:17:53.169Z,13.27
2018-05-10T05:20:21.438Z,12.97
2018-05-10T05:22:48.974Z,13.03
2018-05-10T05:25:16.477Z,12.80
2018-05-10T05:27:44.006Z,13.07
2018-05-10T05:30:11.529Z,12.83
2018-05-10T05:32:39.817Z,12.40
2018-05-10T05:35:08.121Z,12.33
2018-05-10T05:37:35.653Z,12.43
2018-05-10T05:40:03.189Z,11.27
2018-05-10T05:42:30.703Z,12.13
2018-05-10T05:44:58.230Z,12.30
2018-05-10T05:47:25.763Z,12.27
2018-05-10T05:49:54.110Z,11.33
2018-05-10T05:52:22.341Z,9.87
2018-05-10T05:54:50.609Z,9.57
2018-05-10T05:57:18.141Z,9.30
2018-05-10T05:59:45.645Z,8.07
2018-05-10T06:02:13.150Z,7.70
2018-05-10T06:04:40.682Z,7.63
2018-05-10T06:07:08.184Z,7.50
2018-05-10T06:09:36.481Z,7.17
2018-05-10T06:12:04.754Z,8.27
2018-05-10T06:14:33.049Z,7.20
2018-05-10T06:17:01.317Z,6.80
2018-05-10T06:19:29.577Z,6.73
2018-05-10T06:21:57.105Z,6.97
2018-05-10T06:24:24.621Z,7.60
2018-05-10T06:26:52.154Z,6.40
2018-05-10T06:29:19.657Z,7.13
2018-05-10T06:31:47.198Z,7.17
2018-05-10T06:34:14.700Z,6.50
2018-05-10T06:36:42.197Z,6.90
2018-05-10T06:39:09.718Z,6.90
2018-05-10T06:41:38.141Z,7.23
2018-05-10T06:44:06.362Z,7.30
2018-05-10T06:46:34.639Z,7.77
2018-05-10T06:49:02.180Z,7.40
2018-05-10T06:51:29.681Z,7.10
2018-05-10T06:53:57.186Z,8.10
2018-05-10T06:56:24.709Z,7.67
2018-05-10T06:58:52.213Z,7.93
2018-05-10T07:01:20.549Z,8.07
2018-05-10T07:03:48.054Z,7.27
2018-05-10T07:06:15.641Z,8.03
2018-05-10T07:08:43.905Z,7.87
2018-05-10T07:11:11.406Z,8.07
2018-05-10T07:13:38.968Z,7.77
2018-05-10T07:16:07.234Z,7.67
2018-05-10T07:18:34.757Z,7.73
2018-05-10T07:21:02.262Z,7.67
2018-05-10T07:23:29.821Z,8.00
2018-05-10T07:25:57.326Z,7.97
2018-05-10T07:28:25.593Z,7.97
2018-05-10T07:30:53.125Z,7.83
2018-05-10T07:33:20.626Z,8.07
2018-05-10T07:35:48.150Z,8.10
2018-05-10T07:38:15.667Z,8.00
2018-05-10T07:40:43.206Z,7.90
2018-05-10T07:43:10.709Z,7.73
2018-05-10T07:45:38.209Z,7.50
2018-05-10T07:48:06.503Z,7.77
2018-05-10T07:50:34.773Z,7.80
2018-05-10T07:53:02.298Z,7.10
2018-05-10T07:55:29.797Z,8.40
2018-05-10T07:57:57.607Z,7.13
2018-05-10T08:00:25.881Z,8.23
2018-05-10T08:02:53.386Z,7.23
2018-05-10T08:05:20.910Z,6.93
2018-05-10T08:07:49.009Z,8.20
2018-05-10T08:10:16.533Z,7.13
2018-05-10T08:12:44.029Z,6.80
2018-05-10T08:15:11.561Z,7.87
2018-05-10T08:17:39.065Z,8.40
2018-05-10T08:20:06.592Z,8.40
2018-05-10T08:22:34.122Z,8.53
2018-05-10T08:25:01.625Z,7.73
2018-05-10T08:27:48.240Z,8.57
2018-05-10T08:30:15.803Z,7.27
2018-05-10T08:32:43.286Z,7.87
2018-05-10T08:35:10.788Z,7.60
2018-05-10T08:37:38.306Z,7.33
2018-05-10T08:40:06.594Z,8.27
2018-05-10T08:42:34.866Z,8.57
2018-05-10T08:45:03.274Z,9.07
2018-05-10T08:47:30.698Z,8.90
2018-05-10T08:49:58.245Z,8.90
2018-05-10T08:52:25.772Z,9.27
2018-05-10T08:54:53.277Z,9.40
2018-05-10T08:57:20.805Z,7.27
2018-05-10T08:59:48.324Z,5.70
2018-05-10T09:02:15.831Z,5.27
2018-05-10T09:04:43.357Z,2.60
2018-05-10T09:07:10.918Z,2.53
2018-05-10T09:09:38.465Z,2.90
2018-05-10T09:12:05.979Z,2.50
2018-05-10T09:14:33.478Z,3.00
2018-05-10T09:17:01.013Z,2.50
2018-05-10T09:19:28.510Z,2.07
2018-05-10T09:21:56.037Z,2.27
2018-05-10T09:24:24.300Z,1.50
2018-05-10T09:26:51.811Z,1.53
2018-05-10T09:29:19.503Z,1.40
2018-05-10T09:31:47.019Z,2.00
2018-05-10T09:34:14.553Z,1.90
2018-05-10T09:36:42.058Z,2.40
2018-05-10T09:39:09.603Z,1.90
2018-05-10T09:41:37.109Z,1.97
2018-05-10T09:44:04.614Z,2.20
2018-05-10T09:46:32.146Z,1.70
2018-05-10T09:48:59.657Z,1.60
2018-05-10T09:51:27.168Z,1.40
2018-05-10T09:53:54.721Z,2.00
2018-05-10T09:56:22.273Z,1.70
2018-05-10T09:58:49.842Z,1.40
2018-05-10T10:01:17.345Z,1.40
2018-05-10T10:03:44.848Z,1.40
2018-05-10T10:06:13.161Z,1.70
2018-05-10T10:08:40.759Z,1.30
2018-05-10T10:11:08.310Z,1.20
2018-05-10T10:13:35.819Z,1.43
2018-05-10T10:16:03.331Z,1.40
2018-05-10T10:18:31.784Z,2.30
2018-05-10T10:20:59.309Z,2.30
2018-05-10T10:23:26.855Z,2.10
2018-05-10T10:25:55.118Z,2.20
2018-05-10T10:28:22.635Z,2.17
2018-05-10T10:30:50.925Z,2.60
2018-05-10T10:33:19.194Z,1.80
2018-05-10T10:35:46.721Z,1.90
2018-05-10T10:38:14.253Z,2.60
2018-05-10T10:40:42.511Z,2.10
2018-05-10T10:43:10.039Z,2.10
2018-05-10T10:45:37.577Z,2.07
2018-05-10T10:48:05.873Z,2.23
2018-05-10T10:50:34.143Z,2.30
2018-05-10T10:53:02.423Z,2.40
2018-05-10T10:55:29.959Z,2.13
2018-05-10T10:57:57.462Z,2.50
2018-05-10T11:00:25.006Z,3.07
2018-05-10T11:02:52.511Z,2.03
2018-05-10T11:05:20.014Z,2.57
2018-05-10T11:07:47.546Z,3.07
2018-05-10T11:10:15.048Z,3.10
2018-05-10T11:12:42.609Z,3.40
2018-05-10T11:15:10.905Z,3.47
2018-05-10T11:17:38.413Z,3.80
2018-05-10T11:20:05.959Z,4.03
2018-05-10T11:22:33.532Z,4.07
2018-05-10T11:25:01.005Z,4.63
2018-05-10T11:27:28.505Z,5.23
2018-05-10T11:29:56.821Z,5.30
2018-05-10T11:32:24.385Z,5.50
2018-05-10T11:34:51.886Z,5.37
2018-05-10T11:37:19.419Z,5.10
2018-05-10T11:39:46.933Z,5.10
2018-05-10T11:42:14.458Z,5.70
2018-05-10T11:44:41.970Z,6.00
2018-05-10T11:47:09.494Z,5.93
2018-05-10T11:49:37.009Z,6.60
2018-05-10T11:52:04.521Z,6.20
2018-05-10T11:54:32.051Z,6.23
2018-05-10T11:56:59.561Z,6.37
2018-05-10T11:59:27.203Z,6.47
2018-05-10T12:01:54.709Z,6.10
2018-05-10T12:04:22.250Z,6.90
2018-05-10T12:06:49.758Z,7.97
2018-05-10T12:09:17.274Z,7.50
2018-05-10T12:11:44.807Z,7.20
2018-05-10T12:14:12.327Z,7.60
2018-05-10T12:16:39.857Z,8.23
2018-05-10T12:19:07.419Z,8.57
2018-05-10T12:21:34.924Z,8.80
2018-05-10T12:24:02.450Z,7.93
2018-05-10T12:26:29.961Z,9.57
2018-05-10T12:28:57.517Z,8.90
2018-05-10T12:31:25.796Z,8.83
2018-05-10T12:33:53.347Z,10.27
2018-05-10T12:36:21.702Z,10.33
2018-05-10T12:38:49.253Z,10.87
2018-05-10T12:41:17.545Z,9.57
2018-05-10T12:43:45.090Z,9.97
2018-05-10T12:46:12.614Z,12.10
2018-05-10T12:48:40.155Z,10.23
2018-05-10T12:51:07.682Z,9.80
2018-05-10T12:53:35.194Z,11.43
2018-05-10T12:56:02.854Z,9.30
2018-05-10T12:58:30.286Z,10.33
2018-05-10T13:00:58.562Z,9.50
2018-05-10T13:03:26.094Z,10.27
2018-05-10T13:05:54.365Z,9.10
2018-05-10T13:08:22.682Z,9.57
2018-05-10T13:10:50.191Z,8.80
2018-05-10T13:13:17.789Z,9.57
2018-05-10T13:15:45.274Z,9.50
2018-05-10T13:18:13.583Z,9.03
2018-05-10T13:20:41.104Z,9.33
2018-05-10T13:23:08.650Z,9.77
2018-05-10T13:25:36.182Z,9.67
2018-05-10T13:28:03.698Z,10.33
2018-05-10T13:30:31.230Z,9.57
2018-05-10T13:32:58.791Z,10.27
2018-05-10T13:35:27.099Z,10.27
2018-05-10T13:37:54.662Z,9.30
2018-05-10T13:40:22.189Z,9.77
2018-05-10T13:42:49.730Z,10.53
2018-05-10T13:45:17.242Z,9.57
2018-05-10T13:47:44.828Z,10.10
2018-05-10T13:50:13.101Z,10.40
2018-05-10T13:52:40.641Z,10.07
2018-05-10T13:55:08.298Z,10.63
2018-05-10T13:57:35.816Z,10.57
2018-05-10T14:00:03.359Z,10.33
2018-05-10T14:02:31.630Z,9.67
2018-05-10T14:04:59.195Z,10.87
2018-05-10T14:07:26.722Z,10.53
2018-05-10T14:09:55.057Z,10.67
2018-05-10T14:12:22.669Z,11.30
2018-05-10T14:14:50.179Z,10.60
2018-05-10T14:17:18.232Z,11.03
2018-05-10T14:19:45.741Z,11.07
2018-05-10T14:22:13.269Z,11.53
2018-05-10T14:24:40.782Z,12.07
2018-05-10T14:27:08.329Z,11.03
2018-05-10T14:29:36.605Z,10.40
2018-05-10T14:32:04.881Z,9.90
2018-05-10T14:34:32.411Z,9.57
2018-05-10T14:36:59.920Z,9.87
2018-05-10T14:39:27.515Z,10.27
2018-05-10T14:41:55.741Z,9.87
2018-05-10T14:44:23.292Z,9.10
2018-05-10T14:46:50.808Z,8.87
2018-05-10T14:49:18.319Z,9.03
2018-05-10T14:51:46.614Z,8.70
2018-05-10T14:54:14.127Z,8.00
2018-05-10T14:56:41.655Z,7.57
2018-05-10T14:59:09.153Z,7.63
2018-05-10T15:01:36.691Z,7.10
2018-05-10T15:04:04.209Z,7.17
2018-05-10T15:06:32.550Z,7.97
2018-05-10T15:09:00.838Z,7.20
2018-05-10T15:11:29.106Z,6.67
2018-05-10T15:13:57.402Z,7.13
2018-05-10T15:16:25.678Z,7.90
2018-05-10T15:18:53.223Z,7.30
2018-05-10T15:21:20.735Z,7.17
2018-05-10T15:23:49.007Z,7.23
2018-05-10T15:26:16.566Z,6.77
2018-05-10T15:28:44.083Z,7.57
2018-05-10T15:31:11.611Z,6.60
2018-05-10T15:33:39.114Z,6.73
2018-05-10T15:36:06.669Z,6.20
2018-05-10T15:38:34.946Z,6.40
2018-05-10T15:41:02.457Z,6.47
2018-05-10T15:43:29.996Z,6.70
2018-05-10T15:45:58.274Z,5.33
2018-05-10T15:48:25.803Z,5.37
2018-05-10T15:50:53.313Z,5.03
2018-05-10T15:53:20.861Z,4.80
2018-05-10T15:55:48.365Z,4.60
2018-05-10T15:58:15.874Z,4.53
2018-05-10T16:00:43.397Z,4.03
2018-05-10T16:03:10.926Z,3.97
2018-05-10T16:05:38.489Z,3.73
2018-05-10T16:08:05.992Z,3.07
2018-05-10T16:10:33.530Z,3.37
2018-05-10T16:13:01.035Z,3.37
2018-05-10T16:15:28.538Z,3.10
2018-05-10T16:17:56.830Z,3.20
2018-05-10T16:20:25.097Z,3.30
2018-05-10T16:22:52.621Z,3.10
2018-05-10T16:25:20.126Z,2.73
2018-05-10T16:27:47.659Z,2.60
2018-05-10T16:30:15.167Z,2.93
2018-05-10T16:32:42.671Z,2.37
2018-05-10T16:35:10.199Z,2.40
2018-05-10T16:37:37.697Z,2.40
2018-05-10T16:40:06.000Z,2.30
2018-05-10T16:42:34.273Z,2.30
2018-05-10T16:45:02.595Z,2.80
2018-05-10T16:47:30.115Z,2.50
2018-05-10T16:49:57.619Z,2.63
2018-05-10T16:52:25.913Z,2.70
2018-05-10T16:54:53.415Z,2.33
2018-05-10T16:57:20.941Z,2.87
2018-05-10T16:59:49.210Z,2.73
2018-05-10T17:02:16.746Z,3.27
2018-05-10T17:04:44.297Z,3.40
2018-05-10T17:07:11.810Z,3.00
2018-05-10T17:09:39.333Z,2.97
2018-05-10T17:12:06.840Z,2.90
2018-05-10T17:14:34.949Z,2.70
2018-05-10T17:17:02.466Z,2.97
2018-05-10T17:19:30.002Z,3.20
2018-05-10T17:21:58.285Z,4.10
2018-05-10T17:24:26.590Z,2.60
2018-05-10T17:26:54.754Z,2.63
2018-05-10T17:29:23.031Z,2.53
2018-05-10T17:31:50.562Z,2.70
2018-05-10T17:34:18.117Z,2.40
2018-05-10T17:36:45.672Z,2.50
2018-05-10T17:39:13.943Z,2.33
2018-05-10T17:41:42.275Z,2.20
2018-05-10T17:44:09.755Z,2.47
2018-05-10T17:46:37.278Z,2.40
2018-05-10T17:49:05.566Z,2.90
2018-05-10T17:51:34.341Z,2.57
2018-05-10T17:54:01.875Z,2.37
2018-05-10T17:56:29.378Z,2.30
2018-05-10T17:58:56.877Z,2.23
2018-05-10T18:01:25.194Z,2.50
2018-05-10T18:03:52.693Z,2.07
2018-05-10T18:06:20.431Z,2.40
2018-05-10T18:08:47.936Z,2.00
2018-05-10T18:11:15.470Z,2.20
2018-05-10T18:13:43.018Z,2.00
2018-05-10T18:16:10.506Z,2.20
2018-05-10T18:18:38.906Z,2.30
2018-05-10T18:21:06.418Z,2.40
2018-05-10T18:23:33.944Z,1.90
2018-05-10T18:26:01.536Z,1.83
2018-05-10T18:28:29.129Z,2.10
2018-05-10T18:30:56.643Z,2.00
2018-05-10T18:33:24.917Z,1.80
2018-05-10T18:35:52.441Z,1.70
2018-05-10T18:38:19.946Z,1.90
2018-05-10T18:40:47.498Z,1.70
2018-05-10T18:43:15.154Z,1.90
2018-05-10T18:45:42.702Z,1.90
2018-05-10T18:48:10.234Z,1.67
2018-05-10T18:50:37.774Z,1.90
2018-05-10T18:53:05.317Z,1.90
2018-05-10T18:55:32.823Z,1.90
2018-05-10T18:58:00.341Z,1.70
2018-05-10T19:00:28.610Z,1.43
2018-05-10T19:02:56.190Z,1.90
2018-05-10T19:05:24.471Z,1.63
2018-05-10T19:07:52.749Z,1.50
2018-05-10T19:10:20.298Z,1.93
2018-05-10T19:12:47.801Z,1.67
2018-05-10T19:15:15.348Z,1.87
2018-05-10T19:17:42.841Z,1.50
2018-05-10T19:20:10.378Z,1.50
2018-05-10T19:22:37.919Z,1.70
2018-05-10T19:25:05.421Z,1.50
2018-05-10T19:27:32.947Z,1.70
2018-05-10T19:30:00.453Z,1.57
2018-05-10T19:32:27.973Z,1.90
2018-05-10T19:34:56.238Z,1.77
2018-05-10T19:37:23.769Z,1.67
2018-05-10T19:39:51.274Z,1.70
2018-05-10T19:42:18.778Z,1.90
2018-05-10T19:44:47.100Z,1.67
2018-05-10T19:47:14.605Z,1.70
2018-05-10T19:49:42.129Z,1.63
2018-05-10T19:52:09.637Z,1.80
2018-05-10T19:54:37.171Z,1.70
2018-05-10T19:57:04.759Z,1.90
2018-05-10T19:59:32.217Z,1.93
2018-05-10T20:01:59.743Z,1.80
2018-05-10T20:04:27.253Z,2.13
2018-05-10T20:06:54.780Z,2.07
2018-05-10T20:09:22.293Z,1.93
2018-05-10T20:11:49.842Z,2.20
2018-05-10T20:14:18.109Z,2.40
2018-05-10T20:16:45.613Z,2.20
2018-05-10T20:19:13.146Z,2.00
2018-05-10T20:21:40.655Z,2.20
2018-05-10T20:24:08.217Z,2.10
2018-05-10T20:26:35.695Z,2.20
2018-05-10T20:29:03.233Z,2.00
2018-05-10T20:31:30.734Z,2.20
2018-05-10T20:33:58.241Z,2.27
2018-05-10T20:36:25.764Z,2.43
2018-05-10T20:38:54.029Z,2.10
2018-05-10T20:41:22.361Z,2.00
2018-05-10T20:43:49.861Z,2.20
2018-05-10T20:46:17.397Z,1.90
2018-05-10T20:48:44.913Z,2.30
2018-05-10T20:51:12.428Z,2.03
2018-05-10T20:53:39.957Z,1.80
2018-05-10T20:56:07.457Z,2.07
2018-05-10T20:58:35.746Z,2.27
2018-05-10T21:01:04.017Z,2.23
2018-05-10T21:03:31.589Z,2.40
2018-05-10T21:05:59.075Z,2.07
2018-05-10T21:08:27.337Z,2.40
2018-05-10T21:10:54.858Z,2.37
2018-05-10T21:13:22.358Z,2.30
2018-05-10T21:15:49.890Z,2.30
2018-05-10T21:18:17.395Z,2.10
2018-05-10T21:20:44.933Z,2.50
2018-05-10T21:23:12.489Z,2.10
2018-05-10T21:25:39.963Z,2.10
2018-05-10T21:28:07.525Z,2.37
2018-05-10T21:30:35.797Z,2.20
2018-05-10T21:33:03.318Z,2.07
2018-05-10T21:35:30.823Z,1.87
2018-05-10T21:37:58.358Z,2.47
2018-05-10T21:40:25.922Z,2.63
2018-05-10T21:42:54.201Z,2.40
2018-05-10T21:45:22.459Z,2.67
2018-05-10T21:47:50.725Z,2.43
2018-05-10T21:50:18.246Z,2.87
2018-05-10T21:52:45.745Z,2.70
2018-05-10T21:55:13.748Z,2.33
2018-05-10T21:57:41.251Z,2.20
2018-05-10T22:00:09.517Z,2.40
2018-05-10T22:02:37.036Z,2.67
2018-05-10T22:05:04.534Z,2.47
2018-05-10T22:07:32.058Z,2.67
2018-05-10T22:09:59.558Z,2.50
2018-05-10T22:12:27.093Z,2.80
2018-05-10T22:14:54.598Z,2.53
2018-05-10T22:17:22.105Z,2.37
2018-05-10T22:19:49.634Z,2.83
2018-05-10T22:22:17.165Z,2.90
2018-05-10T22:24:44.697Z,2.60
2018-05-10T22:27:12.196Z,2.93
2018-05-10T22:29:40.494Z,2.80
2018-05-10T22:32:08.767Z,2.30
2018-05-10T22:34:36.264Z,2.73
2018-05-10T22:37:03.786Z,2.80
2018-05-10T22:39:31.289Z,2.70
2018-05-10T22:41:59.674Z,2.50
2018-05-10T22:44:27.971Z,2.77
2018-05-10T22:46:55.493Z,2.73
2018-05-10T22:49:23.281Z,2.80
2018-05-10T22:51:50.786Z,3.00
2018-05-10T22:54:19.078Z,3.10
2018-05-10T22:56:47.349Z,2.70
2018-05-10T22:59:14.878Z,2.80
2018-05-10T23:01:42.382Z,2.90
2018-05-10T23:04:09.927Z,2.80
2018-05-10T23:06:37.442Z,2.90
2018-05-10T23:09:05.709Z,3.03
2018-05-10T23:11:33.233Z,3.10
2018-05-10T23:14:00.738Z,3.17
2018-05-10T23:16:28.266Z,3.60
2018-05-10T23:18:55.779Z,3.53
2018-05-10T23:21:23.333Z,3.60
2018-05-10T23:23:50.833Z,3.47
2018-05-10T23:26:18.340Z,3.73
2018-05-10T23:28:45.863Z,3.53
2018-05-10T23:31:13.368Z,3.77
2018-05-10T23:33:41.654Z,3.87
2018-05-10T23:36:09.922Z,3.30
2018-05-10T23:38:37.463Z,3.53
2018-05-10T23:41:04.977Z,4.10
2018-05-10T23:43:33.246Z,4.07
2018-05-10T23:46:00.769Z,3.83
2018-05-10T23:48:28.268Z,3.77
2018-05-10T23:50:55.795Z,3.70
2018-05-10T23:53:23.301Z,3.63
2018-05-10T23:55:50.839Z,3.90
2018-05-10T23:58:18.346Z,4.10
